Time;durP1;ratioP1;P1;durP2;ratioP2;P2;SDS_P1;SDS_P2;PMS_P1;PMS_P2;Temp;Humidity;BMP_temperature;BMP_pressure;BME280_temperature;BME280_humidity;BME280_pressure;Samples;Min_cycle;Max_cycle;Signal;HPM_P1;HPM_P2
2023/03/25 00:02:04;;;;;;;;;;;;;;;7.16;80.63;99203.22;5093636;28;19912;-74
2023/03/25 00:04:29;;;;;;;;;;;;;;;7.23;80.43;99201.94;5093522;28;20310;-73
2023/03/25 00:06:55;;;;;;;;;;;;;;;7.10;80.85;99204.47;5089662;28;19970;-73
2023/03/25 00:09:21;;;;;;;;;;;;;;;6.93;81.76;99210.75;5075038;28;19916;-73
2023/03/25 00:11:49;;;;;;;;;;;;;;;6.85;82.73;99206.78;5093312;28;20012;-73
2023/03/25 00:14:15;;;;;;;;;;;;;;;6.86;82.18;99197.28;5075182;28;19947;-73
2023/03/25 00:16:41;;;;;;;;;;;;;;;6.85;82.35;99194.84;5093453;28;19916;-73
2023/03/25 00:19:08;;;;;;;;;;;;;;;6.93;82.29;99193.25;5093272;28;19912;-73
2023/03/25 00:21:34;;;;;;;;;;;;;;;6.85;82.21;99187.31;5093237;28;19918;-73
2023/03/25 00:24:00;;;;;;;;;;;;;;;7.07;81.43;99185.66;5079667;28;19917;-73
2023/03/25 00:26:28;;;;;;;;;;;;;;;7.05;80.56;99184.31;5065756;28;20380;-73
2023/03/25 00:28:54;;;;;;;;;;;;;;;6.85;81.69;99184.53;5092672;28;19920;-73
2023/03/25 00:31:20;;;;;;;;;;;;;;;6.88;81.69;99183.94;5093040;28;19912;-74
2023/03/25 00:33:45;;;;;;;;;;;;;;;6.85;81.33;99176.19;5092881;28;20460;-73
2023/03/25 00:36:12;;;;;;;;;;;;;;;6.86;81.72;99180.63;5074441;28;20518;-73
2023/03/25 00:38:38;;;;;;;;;;;;;;;6.82;81.96;99173.25;5073849;28;19959;-74
2023/03/25 00:41:26;;;;;;;;;;;;;;;6.80;82.10;99175.50;5072182;28;19924;-73
2023/03/25 00:43:52;;;;;;;;;;;;;;;6.49;84.34;99177.09;5092635;28;19924;-73
2023/03/25 00:46:17;;;;;;;;;;;;;;;6.53;84.28;99172.56;5092040;28;19915;-73
2023/03/25 00:48:43;;;;;;;;;;;;;;;6.51;84.76;99168.44;5092460;28;19920;-73
2023/03/25 00:51:08;;;;;;;;;;;;;;;6.44;85.19;99166.09;5092727;28;19968;-73
2023/03/25 00:53:36;;;;;;;;;;;;;;;6.36;85.37;99167.69;5091907;28;21475;-73
2023/03/25 00:56:02;;;;;;;;;;;;;;;6.39;85.39;99163.44;5091451;28;19916;-73
2023/03/25 00:58:28;;;;;;;;;;;;;;;6.41;85.08;99173.09;5083204;28;19916;-74
2023/03/25 01:00:55;;;;;;;;;;;;;;;6.45;84.63;99159.41;5073960;28;19938;-73
2023/03/25 01:03:22;;;;;;;;;;;;;;;6.55;83.36;99158.34;5092452;28;20348;-73
2023/03/25 01:05:48;;;;;;;;;;;;;;;6.41;83.71;99162.00;5091419;28;19915;-73
2023/03/25 01:08:13;;;;;;;;;;;;;;;6.55;82.77;99150.84;5092086;28;19920;-73
2023/03/25 01:10:39;;;;;;;;;;;;;;;6.76;81.76;99153.09;5107982;28;19968;-74
2023/03/25 01:13:04;;;;;;;;;;;;;;;6.87;81.14;99148.88;5080950;28;19917;-73
2023/03/25 01:15:29;;;;;;;;;;;;;;;6.80;81.40;99140.19;5079121;28;19916;-73
2023/03/25 01:17:55;;;;;;;;;;;;;;;6.88;81.31;99136.66;5092072;28;19919;-73
2023/03/25 01:20:20;;;;;;;;;;;;;;;6.92;81.28;99142.38;5092235;28;19945;-73
2023/03/25 01:22:45;;;;;;;;;;;;;;;7.00;80.89;99135.25;5092297;28;19973;-73
2023/03/25 01:25:11;;;;;;;;;;;;;;;7.12;79.94;99141.03;5074460;28;20405;-73
2023/03/25 01:27:36;;;;;;;;;;;;;;;7.12;80.08;99135.47;5090569;28;19919;-73
2023/03/25 01:30:01;;;;;;;;;;;;;;;7.09;80.36;99129.72;5091700;28;19916;-73
2023/03/25 01:32:27;;;;;;;;;;;;;;;7.06;80.06;99120.06;5092107;28;19967;-73
2023/03/25 01:34:53;;;;;;;;;;;;;;;6.97;80.25;99122.78;5091899;28;19965;-73
2023/03/25 01:37:19;;;;;;;;;;;;;;;6.93;80.74;99120.97;5091855;28;19916;-73
2023/03/25 01:39:44;;;;;;;;;;;;;;;6.84;81.23;99121.72;5091814;28;19912;-73
2023/03/25 01:42:10;;;;;;;;;;;;;;;6.78;81.39;99123.03;5091530;28;19920;-73
2023/03/25 01:44:39;;;;;;;;;;;;;;;6.74;81.56;99116.44;5083384;28;19920;-73
2023/03/25 01:47:07;;;;;;;;;;;;;;;6.69;81.31;99111.81;5087565;28;19923;-73
2023/03/25 01:49:39;;;;;;;;;;;;;;;6.56;81.83;99104.41;5091680;28;20069;-73
2023/03/25 01:52:08;;;;;;;;;;;;;;;6.54;81.31;99107.50;5091437;28;19916;-73
2023/03/25 01:54:34;;;;;;;;;;;;;;;6.45;82.02;99114.97;5073728;28;19912;-73
2023/03/25 01:56:59;;;;;;;;;;;;;;;6.41;82.14;99103.66;5073411;28;20006;-73
2023/03/25 01:59:27;;;;;;;;;;;;;;;6.17;83.25;99096.44;5091240;28;19993;-73
2023/03/25 02:01:53;;;;;;;;;;;;;;;6.12;83.79;99090.19;5072193;28;19932;-73
2023/03/25 02:04:26;;;;;;;;;;;;;;;6.16;83.70;99094.00;5073010;28;19916;-73
2023/03/25 02:06:52;;;;;;;;;;;;;;;5.99;84.52;99101.00;5093333;28;19939;-73
2023/03/25 02:09:20;;;;;;;;;;;;;;;5.96;84.84;99093.31;5095875;28;19916;-73
2023/03/25 02:11:45;;;;;;;;;;;;;;;5.91;85.68;99093.41;5095862;28;19916;-73
2023/03/25 02:14:14;;;;;;;;;;;;;;;5.92;86.34;99091.47;5095942;28;19923;-73
2023/03/25 02:16:39;;;;;;;;;;;;;;;5.88;86.38;99086.56;5095026;28;19916;-73
2023/03/25 02:19:15;;;;;;;;;;;;;;;5.96;86.21;99084.97;5076115;28;20284;-73
2023/03/25 02:22:00;;;;;;;;;;;;;;;6.06;85.72;99080.38;5057368;28;20337;-73
2023/03/25 02:24:28;;;;;;;;;;;;;;;6.11;85.11;99071.91;5091618;28;19916;-73
2023/03/25 02:27:13;;;;;;;;;;;;;;;6.00;85.16;99072.09;5095872;28;20378;-73
2023/03/25 02:29:48;;;;;;;;;;;;;;;5.81;86.02;99080.59;5095154;28;19959;-73
2023/03/25 02:32:28;;;;;;;;;;;;;;;5.67;86.46;99082.59;5095474;28;19919;-74
2023/03/25 02:35:12;;;;;;;;;;;;;;;5.63;86.83;99082.38;5091188;28;20363;-73
2023/03/25 02:37:49;;;;;;;;;;;;;;;5.56;86.87;99082.81;5094898;28;20471;-73
2023/03/25 02:40:19;;;;;;;;;;;;;;;5.61;86.84;99079.09;5095266;28;19916;-74
2023/03/25 02:42:54;;;;;;;;;;;;;;;5.48;86.55;99083.53;5076621;28;19950;-73
2023/03/25 02:45:23;;;;;;;;;;;;;;;5.47;86.16;99085.50;5076468;28;20071;-73
2023/03/25 02:47:50;;;;;;;;;;;;;;;5.67;86.75;99074.28;5076408;28;19924;-73
2023/03/25 02:50:19;;;;;;;;;;;;;;;5.82;85.50;99071.13;5076363;28;20015;-73
2023/03/25 02:52:48;;;;;;;;;;;;;;;5.80;85.18;99061.50;5074808;28;19912;-73
2023/03/25 02:55:15;;;;;;;;;;;;;;;5.67;85.84;99054.84;5074797;28;20390;-73
2023/03/25 02:57:42;;;;;;;;;;;;;;;5.73;86.23;99056.34;5079381;28;20030;-73
2023/03/25 03:00:15;;;;;;;;;;;;;;;5.62;86.52;99044.69;5075316;28;20027;-73
2023/03/25 03:02:49;;;;;;;;;;;;;;;5.69;86.40;99045.09;5094748;28;19935;-74
2023/03/25 03:05:23;;;;;;;;;;;;;;;5.68;86.84;99045.38;5087838;28;19989;-74
2023/03/25 03:07:52;;;;;;;;;;;;;;;5.68;86.13;99042.59;5091753;28;19955;-74
2023/03/25 03:10:21;;;;;;;;;;;;;;;5.97;84.74;99039.44;5076669;28;19938;-73
2023/03/25 03:13:02;;;;;;;;;;;;;;;5.79;85.42;99043.19;5094532;28;20000;-73
2023/03/25 03:15:27;;;;;;;;;;;;;;;5.75;85.81;99045.78;5094311;28;19923;-74
2023/03/25 03:18:07;;;;;;;;;;;;;;;5.94;84.32;99048.38;5093540;28;20302;-74
2023/03/25 03:20:50;;;;;;;;;;;;;;;5.69;84.42;99045.09;5094330;28;19919;-74
2023/03/25 03:23:17;;;;;;;;;;;;;;;5.82;84.24;99042.56;5083527;28;20259;-73
2023/03/25 03:25:49;;;;;;;;;;;;;;;5.90;83.21;99036.25;5089950;28;20015;-73
2023/03/25 03:28:27;;;;;;;;;;;;;;;5.82;83.65;99032.28;5060689;28;19969;-74
2023/03/25 03:30:53;;;;;;;;;;;;;;;5.82;83.85;99037.81;5094377;28;20386;-74
2023/03/25 03:33:31;;;;;;;;;;;;;;;5.68;84.81;99043.44;5093986;28;20003;-74
2023/03/25 03:36:03;;;;;;;;;;;;;;;5.62;85.89;99044.69;5058351;28;20390;-74
2023/03/25 03:38:31;;;;;;;;;;;;;;;5.66;85.75;99040.13;5075883;28;19951;-74
2023/03/25 03:41:00;;;;;;;;;;;;;;;5.62;86.53;99037.19;5082782;28;19917;-74
2023/03/25 03:43:30;;;;;;;;;;;;;;;5.63;86.15;99029.66;5075652;28;19924;-74
2023/03/25 03:45:58;;;;;;;;;;;;;;;5.61;86.84;99031.94;5093862;28;19916;-74
2023/03/25 03:48:25;;;;;;;;;;;;;;;5.42;87.90;99030.13;5093735;28;19916;-73
2023/03/25 03:51:11;;;;;;;;;;;;;;;5.45;88.89;99023.97;5093870;28;19981;-73
2023/03/25 03:53:39;;;;;;;;;;;;;;;5.62;87.67;99028.03;5092784;28;20397;-73
2023/03/25 03:56:07;;;;;;;;;;;;;;;5.56;88.07;99019.00;5087305;28;19916;-73
2023/03/25 03:58:35;;;;;;;;;;;;;;;5.50;88.66;99023.03;5081154;28;19912;-73
2023/03/25 04:01:04;;;;;;;;;;;;;;;5.61;88.55;99021.69;5093722;28;19916;-73
2023/03/25 04:03:33;;;;;;;;;;;;;;;5.50;88.02;99024.97;5093562;28;20310;-73
2023/03/25 04:06:17;;;;;;;;;;;;;;;5.41;88.95;99031.25;5074838;28;19912;-73
2023/03/25 04:08:57;;;;;;;;;;;;;;;5.45;88.72;99035.06;5093091;28;19977;-73
2023/03/25 04:11:26;;;;;;;;;;;;;;;5.52;87.50;99029.09;5107182;28;20358;-73
2023/03/25 04:13:53;;;;;;;;;;;;;;;5.44;87.64;99038.97;5073203;28;19917;-73
2023/03/25 04:16:18;;;;;;;;;;;;;;;5.45;87.49;99035.06;5073267;28;19916;-73
2023/03/25 04:18:46;;;;;;;;;;;;;;;5.47;86.63;99035.56;5081027;28;20451;-73
2023/03/25 04:21:14;;;;;;;;;;;;;;;5.40;86.91;99043.47;5093270;28;19916;-73
2023/03/25 04:23:40;;;;;;;;;;;;;;;5.30;87.45;99038.16;5093044;28;19952;-73
2023/03/25 04:26:05;;;;;;;;;;;;;;;5.14;88.16;99044.03;5093347;28;20282;-73
2023/03/25 04:28:31;;;;;;;;;;;;;;;5.32;87.52;99036.72;5092612;28;19972;-73
2023/03/25 04:30:59;;;;;;;;;;;;;;;5.26;87.50;99040.75;5086244;28;19916;-73
2023/03/25 04:33:24;;;;;;;;;;;;;;;5.19;86.89;99046.72;5093084;28;19969;-73
2023/03/25 04:35:50;;;;;;;;;;;;;;;4.99;88.56;99052.66;5074361;28;20006;-73
2023/03/25 04:38:17;;;;;;;;;;;;;;;4.94;88.91;99036.97;5092831;28;19920;-74
2023/03/25 04:40:45;;;;;;;;;;;;;;;4.85;89.13;99055.44;5093054;28;20318;-73
2023/03/25 04:43:11;;;;;;;;;;;;;;;4.97;89.50;99052.16;5088980;28;19920;-73
2023/03/25 04:45:36;;;;;;;;;;;;;;;5.01;89.09;99056.78;5086888;28;20386;-73
2023/03/25 04:48:04;;;;;;;;;;;;;;;5.00;89.54;99057.09;5091626;28;20002;-72
2023/03/25 04:50:30;;;;;;;;;;;;;;;5.10;89.17;99056.88;5092762;28;19919;-73
2023/03/25 04:52:57;;;;;;;;;;;;;;;5.08;88.92;99061.09;5092594;28;20278;-72
2023/03/25 04:55:24;;;;;;;;;;;;;;;5.20;88.48;99056.69;5092683;28;19920;-74
2023/03/25 04:57:50;;;;;;;;;;;;;;;5.25;87.90;99066.00;5074307;28;19971;-73
2023/03/25 05:00:18;;;;;;;;;;;;;;;5.28;87.66;99062.59;5072441;28;19982;-72
2023/03/25 05:02:47;;;;;;;;;;;;;;;5.37;87.61;99055.22;5088353;28;19955;-72
2023/03/25 05:05:17;;;;;;;;;;;;;;;5.46;87.37;99063.63;5071003;28;19948;-72
2023/03/25 05:07:44;;;;;;;;;;;;;;;5.67;87.10;99058.44;5088852;28;19916;-73
2023/03/25 05:10:10;;;;;;;;;;;;;;;5.66;86.12;99051.22;5092578;28;20006;-73
2023/03/25 05:12:35;;;;;;;;;;;;;;;5.82;85.86;99059.22;5092052;28;20487;-74
2023/03/25 05:15:00;;;;;;;;;;;;;;;5.89;85.71;99054.03;5092296;28;19912;-72
2023/03/25 05:17:25;;;;;;;;;;;;;;;6.25;84.46;99058.75;5092421;28;19967;-71
2023/03/25 05:19:51;;;;;;;;;;;;;;;6.60;82.70;99056.19;5086625;28;20007;-71
2023/03/25 05:22:17;;;;;;;;;;;;;;;6.57;82.88;99056.00;5073888;28;19950;-71
2023/03/25 05:24:43;;;;;;;;;;;;;;;6.60;82.83;99058.97;5092111;28;19971;-72
2023/03/25 05:27:09;;;;;;;;;;;;;;;6.71;83.53;99058.72;5088172;28;19915;-71
2023/03/25 05:29:34;;;;;;;;;;;;;;;6.74;83.98;99058.91;5080281;28;20409;-71
2023/03/25 05:31:59;;;;;;;;;;;;;;;7.06;82.91;99056.09;5073850;28;19986;-72
2023/03/25 05:34:28;;;;;;;;;;;;;;;6.85;83.12;99044.72;5112441;28;19912;-73
2023/03/25 05:36:54;;;;;;;;;;;;;;;6.93;82.75;99048.69;5074335;28;19920;-71
2023/03/25 05:39:19;;;;;;;;;;;;;;;7.00;82.04;99044.28;5080376;28;20345;-71
2023/03/25 05:41:44;;;;;;;;;;;;;;;7.20;81.53;99049.59;5081538;28;19920;-71
2023/03/25 05:44:13;;;;;;;;;;;;;;;7.24;80.72;99053.34;5091268;28;20018;-71
2023/03/25 05:46:39;;;;;;;;;;;;;;;7.08;81.95;99058.56;5097354;28;20344;-72
2023/03/25 05:49:04;;;;;;;;;;;;;;;7.12;82.92;99053.97;5090147;28;19924;-71
2023/03/25 05:51:32;;;;;;;;;;;;;;;7.17;83.29;99059.38;5088687;28;19924;-71
2023/03/25 05:53:57;;;;;;;;;;;;;;;7.51;81.48;99059.81;5089353;28;19931;-72
2023/03/25 05:56:23;;;;;;;;;;;;;;;7.54;80.88;99048.03;5078922;28;19928;-71
2023/03/25 05:58:49;;;;;;;;;;;;;;;7.69;80.76;99055.91;5088547;28;19920;-71
2023/03/25 06:01:15;;;;;;;;;;;;;;;7.75;80.89;99058.53;5088475;28;19916;-71
2023/03/25 06:03:42;;;;;;;;;;;;;;;7.80;81.22;99047.22;5089072;28;20084;-71
2023/03/25 06:06:12;;;;;;;;;;;;;;;8.12;80.01;99056.25;5067908;28;19920;-71
2023/03/25 06:08:41;;;;;;;;;;;;;;;8.38;79.27;99050.63;5088454;28;19920;-72
2023/03/25 06:11:08;;;;;;;;;;;;;;;8.60;78.88;99053.59;5076808;28;19920;-72
2023/03/25 06:13:36;;;;;;;;;;;;;;;8.76;78.73;99051.09;5084566;28;19920;-71
2023/03/25 06:16:02;;;;;;;;;;;;;;;8.83;76.97;99052.19;5089178;28;20463;-70
2023/03/25 06:18:28;;;;;;;;;;;;;;;8.84;76.60;99048.25;5089128;28;19916;-71
2023/03/25 06:20:56;;;;;;;;;;;;;;;9.12;76.11;99047.81;5086284;28;19924;-72
2023/03/25 06:23:22;;;;;;;;;;;;;;;9.16;75.59;99041.53;5088388;28;19920;-72
2023/03/25 06:25:50;;;;;;;;;;;;;;;9.39;75.28;99050.47;5088709;28;20397;-72
2023/03/25 06:28:17;;;;;;;;;;;;;;;9.30;73.86;99044.94;5086920;28;19947;-73
2023/03/25 06:30:43;;;;;;;;;;;;;;;9.42;76.04;99049.78;5088013;28;20007;-73
2023/03/25 06:33:09;;;;;;;;;;;;;;;9.42;74.51;99044.19;5087790;28;20382;-72
2023/03/25 06:35:35;;;;;;;;;;;;;;;9.47;74.40;99043.19;5087577;28;19981;-70
2023/03/25 06:38:00;;;;;;;;;;;;;;;9.29;73.89;99040.50;5066475;28;20306;-72
2023/03/25 06:40:25;;;;;;;;;;;;;;;9.46;74.95;99045.16;5098640;28;19923;-72
2023/03/25 06:42:51;;;;;;;;;;;;;;;9.81;73.21;99039.31;5107399;28;19924;-72
2023/03/25 06:45:16;;;;;;;;;;;;;;;10.03;73.47;99034.56;5109050;28;19915;-71
2023/03/25 06:47:42;;;;;;;;;;;;;;;9.82;73.51;99028.97;5107952;28;19916;-72
2023/03/25 06:50:07;;;;;;;;;;;;;;;10.11;73.19;99024.44;5107978;28;19958;-72
2023/03/25 06:52:32;;;;;;;;;;;;;;;10.29;72.82;99030.69;5108996;28;19938;-72
2023/03/25 06:54:58;;;;;;;;;;;;;;;10.66;71.92;99027.22;5077215;28;19970;-73
2023/03/25 06:57:23;;;;;;;;;;;;;;;10.49;71.59;99028.22;5072219;28;20398;-73
2023/03/25 06:59:48;;;;;;;;;;;;;;;10.79;71.51;99030.84;5071830;28;19923;-74
2023/03/25 07:02:14;;;;;;;;;;;;;;;11.18;71.11;99030.53;5075330;28;19916;-73
2023/03/25 07:04:40;;;;;;;;;;;;;;;11.50;68.99;99034.38;5103605;28;20382;-74
2023/03/25 07:07:05;;;;;;;;;;;;;;;11.83;66.90;99040.16;5115080;28;19912;-72
2023/03/25 07:09:31;;;;;;;;;;;;;;;12.31;66.52;99037.56;5104682;28;20384;-73
2023/03/25 07:11:56;;;;;;;;;;;;;;;12.72;65.30;99038.28;5078312;28;19927;-73
2023/03/25 07:14:21;;;;;;;;;;;;;;;12.59;65.11;99039.53;5074415;28;19920;-73
2023/03/25 07:16:47;;;;;;;;;;;;;;;12.26;66.60;99032.22;5074316;28;19912;-73
2023/03/25 07:19:12;;;;;;;;;;;;;;;12.29;65.51;99031.50;5056390;28;19912;-73
2023/03/25 07:21:38;;;;;;;;;;;;;;;12.50;65.75;99022.88;5074225;28;19920;-73
2023/03/25 07:24:03;;;;;;;;;;;;;;;12.83;65.01;99023.72;5104945;28;19912;-73
2023/03/25 07:26:28;;;;;;;;;;;;;;;13.33;62.80;99016.53;5094353;28;19912;-73
2023/03/25 07:28:54;;;;;;;;;;;;;;;13.47;61.88;99020.88;5082179;28;19927;-74
2023/03/25 07:31:19;;;;;;;;;;;;;;;13.27;60.80;99011.56;5074094;28;19943;-73
2023/03/25 07:33:44;;;;;;;;;;;;;;;13.42;60.05;99019.16;5088652;28;19924;-73
2023/03/25 07:36:11;;;;;;;;;;;;;;;13.62;59.91;99016.41;5100217;28;19979;-73
2023/03/25 07:38:36;;;;;;;;;;;;;;;14.08;59.15;99015.78;5094117;28;19923;-73
2023/03/25 07:41:08;;;;;;;;;;;;;;;14.56;58.17;99015.53;5094181;28;19912;-73
2023/03/25 07:43:34;;;;;;;;;;;;;;;14.83;58.01;99009.19;5065619;28;20009;-73
2023/03/25 07:45:59;;;;;;;;;;;;;;;14.70;57.82;99002.91;5043287;28;19966;-73
2023/03/25 07:48:24;;;;;;;;;;;;;;;15.02;58.17;99003.50;5055918;28;19923;-73
2023/03/25 07:50:51;;;;;;;;;;;;;;;15.18;55.88;98998.91;5073782;28;19913;-73
2023/03/25 07:53:16;;;;;;;;;;;;;;;15.18;56.88;98996.91;5072048;28;19959;-73
2023/03/25 07:55:41;;;;;;;;;;;;;;;15.48;56.37;98998.97;5072129;28;19919;-72
2023/03/25 07:58:07;;;;;;;;;;;;;;;15.77;54.84;98992.94;5066347;28;19916;-75
2023/03/25 08:00:35;;;;;;;;;;;;;;;15.71;55.40;98990.44;5090908;28;20465;-75
2023/03/25 08:03:00;;;;;;;;;;;;;;;15.62;56.45;98981.44;5055467;28;19920;-75
2023/03/25 08:05:26;;;;;;;;;;;;;;;15.60;55.76;98974.59;5057193;28;19916;-74
2023/03/25 08:07:52;;;;;;;;;;;;;;;16.01;54.94;98974.72;5053463;28;19913;-74
2023/03/25 08:10:18;;;;;;;;;;;;;;;15.81;53.16;98972.06;5053272;28;20302;-74
2023/03/25 08:12:44;;;;;;;;;;;;;;;16.33;51.48;98985.59;5052760;28;19917;-75
2023/03/25 08:15:13;;;;;;;;;;;;;;;16.07;49.77;98975.19;5035460;28;20362;-75
2023/03/25 08:17:39;;;;;;;;;;;;;;;16.30;50.05;98972.25;5053209;28;19924;-75
2023/03/25 08:20:05;;;;;;;;;;;;;;;16.36;49.10;98969.91;5053319;28;20338;-75
2023/03/25 08:22:31;;;;;;;;;;;;;;;16.63;47.83;98967.72;5053162;28;19917;-75
2023/03/25 08:24:57;;;;;;;;;;;;;;;16.75;47.38;98963.81;5053069;28;19923;-75
2023/03/25 08:27:22;;;;;;;;;;;;;;;16.88;46.21;98978.44;5053591;28;19948;-74
2023/03/25 08:29:53;;;;;;;;;;;;;;;16.52;46.98;98964.81;5071204;28;19920;-76
2023/03/25 08:32:19;;;;;;;;;;;;;;;16.92;46.31;98961.53;5070914;28;19917;-73
2023/03/25 08:34:44;;;;;;;;;;;;;;;17.22;48.22;98960.59;5083384;28;20314;-73
2023/03/25 08:37:10;;;;;;;;;;;;;;;17.26;48.75;98953.78;5072704;28;19920;-73
2023/03/25 08:39:38;;;;;;;;;;;;;;;17.40;46.65;98960.72;5072627;28;20053;-73
2023/03/25 08:42:04;;;;;;;;;;;;;;;17.54;47.27;98951.50;5079357;28;19924;-73
2023/03/25 08:44:29;;;;;;;;;;;;;;;17.72;45.19;98954.41;5089832;28;19989;-73
2023/03/25 08:46:54;;;;;;;;;;;;;;;17.79;46.82;98942.31;5092292;28;19955;-72
2023/03/25 08:49:20;;;;;;;;;;;;;;;17.98;46.82;98943.22;5080778;28;19942;-71
2023/03/25 08:51:45;;;;;;;;;;;;;;;17.95;47.33;98928.69;5074605;28;19931;-71
2023/03/25 08:54:10;;;;;;;;;;;;;;;18.09;45.84;98925.09;5092041;28;19982;-75
2023/03/25 08:56:36;;;;;;;;;;;;;;;18.18;45.45;98919.06;5074787;28;20010;-75
2023/03/25 08:59:01;;;;;;;;;;;;;;;18.36;45.80;98916.28;5093016;28;19939;-75
2023/03/25 09:01:26;;;;;;;;;;;;;;;18.40;45.51;98918.31;5082525;28;20011;-75
2023/03/25 09:03:52;;;;;;;;;;;;;;;18.46;45.78;98911.03;5072329;28;19912;-78
2023/03/25 09:06:18;;;;;;;;;;;;;;;18.62;47.07;98905.78;5072269;28;19951;-75
2023/03/25 09:08:43;;;;;;;;;;;;;;;19.02;45.03;98907.81;5101282;28;19966;-76
2023/03/25 09:11:08;;;;;;;;;;;;;;;19.13;44.05;98907.84;5112835;28;20332;-74
2023/03/25 09:13:34;;;;;;;;;;;;;;;19.34;42.70;98892.78;5112657;28;19918;-75
2023/03/25 09:15:59;;;;;;;;;;;;;;;19.49;42.95;98893.56;5112059;28;20002;-75
2023/03/25 09:18:25;;;;;;;;;;;;;;;19.12;43.18;98892.84;5088533;28;19917;-76
2023/03/25 09:20:50;;;;;;;;;;;;;;;19.30;43.52;98886.31;5072198;28;19912;-76
2023/03/25 09:23:16;;;;;;;;;;;;;;;19.30;40.74;98886.31;5072032;28;20280;-76
2023/03/25 09:25:42;;;;;;;;;;;;;;;19.54;42.03;98878.13;5071945;28;19912;-76
2023/03/25 09:28:08;;;;;;;;;;;;;;;19.54;42.24;98878.97;5071874;28;20247;-76
2023/03/25 09:30:33;;;;;;;;;;;;;;;19.72;44.70;98869.56;5071954;28;20007;-76
2023/03/25 09:32:59;;;;;;;;;;;;;;;19.92;41.90;98872.72;5071228;28;19966;-76
2023/03/25 09:35:25;;;;;;;;;;;;;;;20.13;41.45;98871.81;5071811;28;20316;-76
2023/03/25 09:37:50;;;;;;;;;;;;;;;20.17;42.27;98857.59;5071631;28;19919;-76
2023/03/25 09:40:17;;;;;;;;;;;;;;;20.35;40.68;98860.31;5053824;28;19927;-76
2023/03/25 09:42:52;;;;;;;;;;;;;;;20.40;41.19;98857.03;5071624;28;19924;-76
2023/03/25 09:45:20;;;;;;;;;;;;;;;20.43;41.23;98844.81;5087321;28;19916;-76
2023/03/25 09:48:05;;;;;;;;;;;;;;;20.59;39.47;98843.50;5071513;28;20003;-76
2023/03/25 09:50:32;;;;;;;;;;;;;;;20.77;39.19;98834.81;5087100;28;20490;-76
2023/03/25 09:52:58;;;;;;;;;;;;;;;20.84;40.83;98837.59;5109611;28;20378;-76
2023/03/25 09:55:28;;;;;;;;;;;;;;;20.62;41.31;98826.41;5092627;28;19916;-75
2023/03/25 09:57:57;;;;;;;;;;;;;;;20.59;40.37;98820.78;5112152;28;19916;-75
2023/03/25 10:00:24;;;;;;;;;;;;;;;20.66;40.56;98823.53;5112196;28;20301;-76
2023/03/25 10:02:55;;;;;;;;;;;;;;;20.85;40.10;98816.47;5093845;28;19916;-76
2023/03/25 10:05:44;;;;;;;;;;;;;;;21.20;38.43;98815.72;5112130;28;19998;-76
2023/03/25 10:08:12;;;;;;;;;;;;;;;21.15;38.81;98808.44;5080933;28;19927;-81
2023/03/25 10:10:40;;;;;;;;;;;;;;;20.79;38.42;98809.63;5079955;28;19923;-76
2023/03/25 10:13:16;;;;;;;;;;;;;;;21.37;38.74;98796.81;5111999;28;20320;-76
2023/03/25 10:15:51;;;;;;;;;;;;;;;21.46;37.51;98797.13;5103462;28;19920;-76
2023/03/25 10:18:35;;;;;;;;;;;;;;;21.37;36.97;98788.28;5071378;28;19919;-77
2023/03/25 10:21:01;;;;;;;;;;;;;;;21.28;37.91;98778.22;5087096;28;20007;-74
2023/03/25 10:23:35;;;;;;;;;;;;;;;21.43;38.13;98778.06;5071351;28;19917;-74
2023/03/25 10:26:04;;;;;;;;;;;;;;;21.62;37.81;98778.63;5070455;28;20378;-74
2023/03/25 10:28:32;;;;;;;;;;;;;;;21.55;37.91;98774.66;5055482;28;19977;-73
2023/03/25 10:30:58;;;;;;;;;;;;;;;22.01;38.31;98765.88;5075130;28;19913;-74
2023/03/25 10:33:34;;;;;;;;;;;;;;;22.19;36.93;98765.59;5075067;28;19968;-75
2023/03/25 10:36:01;;;;;;;;;;;;;;;22.22;37.13;98759.06;5075178;28;19912;-74
2023/03/25 10:38:29;;;;;;;;;;;;;;;21.26;36.69;98755.09;5074922;28;19966;-74
2023/03/25 10:40:58;;;;;;;;;;;;;;;21.28;37.47;98752.63;5074399;28;19963;-74
2023/03/25 10:43:25;;;;;;;;;;;;;;;21.91;36.49;98750.56;5074349;28;19920;-74
2023/03/25 10:45:54;;;;;;;;;;;;;;;21.99;35.06;98740.69;5074770;28;19928;-74
2023/03/25 10:48:24;;;;;;;;;;;;;;;22.28;34.94;98740.22;5079699;28;19920;-75
2023/03/25 10:50:51;;;;;;;;;;;;;;;22.24;35.93;98739.47;5109015;28;19955;-75
2023/03/25 10:53:26;;;;;;;;;;;;;;;22.48;36.03;98739.50;5095673;28;19939;-75
2023/03/25 10:56:18;;;;;;;;;;;;;;;22.40;34.98;98733.09;5095774;28;19919;-75
2023/03/25 10:58:46;;;;;;;;;;;;;;;22.48;34.41;98730.13;5073593;28;20409;-75
2023/03/25 11:01:14;;;;;;;;;;;;;;;22.56;34.11;98726.75;5084030;28;19920;-75
2023/03/25 11:03:40;;;;;;;;;;;;;;;22.63;35.14;98714.41;5075155;28;20419;-75
2023/03/25 11:06:06;;;;;;;;;;;;;;;22.85;34.52;98709.09;5075001;28;19958;-74
2023/03/25 11:08:31;;;;;;;;;;;;;;;23.11;34.19;98708.59;5075326;28;19970;-76
2023/03/25 11:10:57;;;;;;;;;;;;;;;23.46;32.99;98696.84;5086443;28;19912;-74
2023/03/25 11:13:26;;;;;;;;;;;;;;;23.67;33.16;98699.22;5113716;28;19922;-74
2023/03/25 11:15:53;;;;;;;;;;;;;;;23.87;32.38;98701.19;5108086;28;20446;-74
2023/03/25 11:18:19;;;;;;;;;;;;;;;23.68;31.56;98697.97;5074829;28;19913;-73
2023/03/25 11:20:46;;;;;;;;;;;;;;;23.94;31.42;98688.78;5074894;28;19912;-71
2023/03/25 11:23:21;;;;;;;;;;;;;;;23.60;31.55;98685.09;5074701;28;19920;-72
2023/03/25 11:25:47;;;;;;;;;;;;;;;23.88;32.11;98685.66;5081421;28;20568;-71
2023/03/25 11:28:21;;;;;;;;;;;;;;;24.21;32.60;98674.25;5072153;28;19923;-70
2023/03/25 11:31:06;;;;;;;;;;;;;;;24.14;32.86;98662.22;5072171;28;19923;-71
2023/03/25 11:33:32;;;;;;;;;;;;;;;24.10;32.55;98665.16;5071765;28;19931;-69
2023/03/25 11:36:08;;;;;;;;;;;;;;;24.17;32.05;98656.41;5085954;28;19915;-73
2023/03/25 11:38:36;;;;;;;;;;;;;;;23.49;32.28;98651.13;5093734;28;19998;-72
2023/03/25 11:41:02;;;;;;;;;;;;;;;23.92;31.91;98648.44;5112690;28;19970;-71
2023/03/25 11:43:32;;;;;;;;;;;;;;;23.69;33.03;98638.81;5112763;28;19920;-72
2023/03/25 11:46:06;;;;;;;;;;;;;;;23.91;32.88;98638.28;5112857;28;19916;-71
2023/03/25 11:48:35;;;;;;;;;;;;;;;24.23;34.21;98630.97;5104621;28;20278;-73
2023/03/25 11:51:02;;;;;;;;;;;;;;;24.58;32.64;98621.84;5085807;28;20375;-75
2023/03/25 11:53:30;;;;;;;;;;;;;;;24.73;30.20;98617.31;5073803;28;20299;-74
2023/03/25 11:56:01;;;;;;;;;;;;;;;24.34;31.71;98610.66;5081483;28;19919;-74
2023/03/25 11:58:32;;;;;;;;;;;;;;;24.19;30.79;98608.19;5076680;28;19916;-73
2023/03/25 12:01:23;;;;;;;;;;;;;;;23.82;31.47;98602.59;5084305;28;19962;-73
2023/03/25 12:03:50;;;;;;;;;;;;;;;24.40;32.56;98597.44;5089253;28;20338;-74
2023/03/25 12:06:17;;;;;;;;;;;;;;;24.57;30.93;98597.38;5085381;28;19916;-73
2023/03/25 12:08:55;;;;;;;;;;;;;;;24.94;31.17;98587.31;5091989;28;19917;-72
2023/03/25 12:11:42;;;;;;;;;;;;;;;24.92;29.74;98583.31;5073503;28;19916;-75
2023/03/25 12:14:14;;;;;;;;;;;;;;;25.12;30.70;98576.59;5055648;28;19993;-76
2023/03/25 12:16:42;;;;;;;;;;;;;;;24.84;28.96;98582.72;5115178;27;19918;-78
2023/03/25 12:19:14;;;;;;;;;;;;;;;25.07;28.49;98567.28;5112973;28;19958;-75
2023/03/25 12:21:55;;;;;;;;;;;;;;;25.43;29.75;98558.81;5095462;28;19918;-76
2023/03/25 12:24:39;;;;;;;;;;;;;;;25.36;28.61;98565.59;5101750;28;19912;-76
2023/03/25 12:27:06;;;;;;;;;;;;;;;25.40;28.81;98562.59;5109049;28;19916;-76
2023/03/25 12:29:40;;;;;;;;;;;;;;;25.15;29.95;98556.41;5108857;28;20306;-76
2023/03/25 12:32:06;;;;;;;;;;;;;;;25.26;28.71;98547.50;5092243;28;19916;-73
2023/03/25 12:34:48;;;;;;;;;;;;;;;25.30;28.29;98548.19;5092255;28;19965;-73
2023/03/25 12:37:32;;;;;;;;;;;;;;;25.24;29.10;98544.31;5074070;28;20389;-72
2023/03/25 12:40:20;;;;;;;;;;;;;;;25.43;26.97;98538.78;5085376;28;19943;-74
2023/03/25 12:42:45;;;;;;;;;;;;;;;25.66;25.78;98537.66;5084961;28;19927;-73
2023/03/25 12:45:17;;;;;;;;;;;;;;;25.64;26.86;98537.28;5106170;28;20311;-71
2023/03/25 12:47:49;;;;;;;;;;;;;;;25.67;26.59;98526.97;5084997;28;19920;-73
2023/03/25 12:50:19;;;;;;;;;;;;;;;25.41;27.02;98524.94;5074498;28;20287;-73
2023/03/25 12:52:54;;;;;;;;;;;;;;;25.51;27.38;98515.22;5066341;28;19917;-73
2023/03/25 12:55:28;;;;;;;;;;;;;;;25.58;27.59;98508.47;5075352;28;20011;-73
2023/03/25 12:58:22;;;;;;;;;;;;;;;25.43;26.68;98501.56;5077794;28;19934;-73
2023/03/25 13:01:06;;;;;;;;;;;;;;;25.37;28.39;98504.22;5087062;28;19916;-73